createdAt,value
2023-02-27T00:00:54.993Z,100.00
2023-02-27T00:03:22.969Z,100.00
2023-02-27T00:05:50.843Z,100.00
2023-02-27T00:08:18.864Z,100.00
2023-02-27T00:10:46.913Z,100.00
2023-02-27T00:13:17.474Z,100.00
2023-02-27T00:15:47.145Z,100.00
2023-02-27T00:18:15.283Z,100.00
2023-02-27T00:20:43.352Z,100.00
2023-02-27T00:23:11.510Z,100.00
2023-02-27T00:25:39.440Z,100.00
2023-02-27T00:28:07.420Z,100.00
2023-02-27T00:30:36.849Z,100.00
2023-02-27T00:33:05.546Z,100.00
2023-02-27T00:35:34.717Z,100.00
2023-02-27T00:38:03.188Z,100.00
2023-02-27T00:40:31.474Z,100.00
2023-02-27T00:42:59.464Z,100.00
2023-02-27T00:45:27.339Z,100.00
2023-02-27T00:47:56.783Z,100.00
2023-02-27T00:50:24.687Z,100.00
2023-02-27T00:52:52.596Z,100.00
2023-02-27T00:55:20.427Z,100.00
2023-02-27T00:57:48.657Z,100.00
2023-02-27T01:00:17.233Z,100.00
2023-02-27T01:02:45.092Z,100.00
2023-02-27T01:05:15.000Z,100.00
2023-02-27T01:07:42.952Z,100.00
2023-02-27T01:10:13.891Z,100.00
2023-02-27T01:12:42.440Z,100.00
2023-02-27T01:15:11.998Z,100.00
2023-02-27T01:17:40.316Z,100.00
2023-02-27T01:20:11.216Z,100.00
2023-02-27T01:22:40.911Z,100.00
2023-02-27T01:25:09.821Z,100.00
2023-02-27T01:27:40.805Z,100.00
2023-02-27T01:30:11.378Z,100.00
2023-02-27T01:32:39.777Z,100.00
2023-02-27T01:35:08.286Z,100.00
2023-02-27T01:37:36.094Z,100.00
2023-02-27T01:40:08.947Z,100.00
2023-02-27T01:42:37.087Z,100.00
2023-02-27T01:45:36.323Z,100.00
2023-02-27T01:48:10.687Z,100.00
2023-02-27T01:50:44.595Z,100.00
2023-02-27T01:53:12.640Z,100.00
2023-02-27T01:55:42.427Z,100.00
2023-02-27T01:58:13.481Z,100.00
2023-02-27T02:00:41.624Z,100.00
2023-02-27T02:03:18.437Z,100.00
2023-02-27T02:05:48.406Z,100.00
2023-02-27T02:08:20.174Z,100.00
2023-02-27T02:10:51.888Z,100.00
2023-02-27T02:13:21.369Z,100.00
2023-02-27T02:15:59.149Z,100.00
2023-02-27T02:18:39.093Z,100.00
2023-02-27T02:21:46.104Z,100.00
2023-02-27T02:24:53.892Z,100.00
2023-02-27T02:27:32.896Z,100.00
2023-02-27T02:30:47.835Z,100.00
2023-02-27T02:33:56.294Z,100.00
2023-02-27T02:36:50.821Z,100.00
2023-02-27T02:39:56.155Z,100.00
2023-02-27T02:42:28.010Z,100.00
2023-02-27T02:45:06.539Z,100.00
2023-02-27T02:47:41.225Z,100.00
2023-02-27T02:50:14.174Z,100.00
2023-02-27T02:52:51.473Z,100.00
2023-02-27T02:55:27.836Z,100.00
2023-02-27T02:58:03.168Z,100.00
2023-02-27T03:00:34.218Z,100.00
2023-02-27T03:03:08.946Z,100.00
2023-02-27T03:05:40.987Z,100.00
2023-02-27T03:08:14.605Z,100.00
2023-02-27T03:10:50.279Z,100.00
2023-02-27T03:13:25.710Z,100.00
2023-02-27T03:15:59.519Z,100.00
2023-02-27T03:18:33.702Z,100.00
2023-02-27T03:21:07.194Z,100.00
2023-02-27T03:23:41.731Z,100.00
2023-02-27T03:26:13.353Z,100.00
2023-02-27T03:28:51.997Z,100.00
2023-02-27T03:31:24.908Z,100.00
2023-02-27T03:33:56.804Z,100.00
2023-02-27T03:36:32.567Z,100.00
2023-02-27T03:39:07.787Z,100.00
2023-02-27T03:41:41.961Z,100.00
2023-02-27T03:44:55.883Z,100.00
2023-02-27T03:47:24.176Z,100.00
2023-02-27T03:49:52.784Z,100.00
2023-02-27T03:52:22.026Z,100.00
2023-02-27T03:54:54.244Z,100.00
2023-02-27T03:57:23.658Z,100.00
2023-02-27T03:59:51.963Z,100.00
2023-02-27T04:02:20.503Z,100.00
2023-02-27T04:04:48.799Z,100.00
2023-02-27T04:08:09.439Z,100.00
2023-02-27T04:10:50.200Z,100.00
2023-02-27T04:13:44.433Z,100.00
2023-02-27T04:16:53.734Z,100.00
2023-02-27T04:19:43.034Z,100.00
2023-02-27T04:22:24.110Z,100.00
2023-02-27T04:24:58.336Z,100.00
2023-02-27T04:27:36.357Z,100.00
2023-02-27T04:30:20.270Z,100.00
2023-02-27T04:32:53.801Z,100.00
2023-02-27T04:35:26.928Z,100.00
2023-02-27T04:37:59.608Z,100.00
2023-02-27T04:40:30.820Z,100.00
2023-02-27T04:43:02.174Z,100.00
2023-02-27T04:45:35.634Z,100.00
2023-02-27T04:48:08.468Z,100.00
2023-02-27T04:50:39.360Z,100.00
2023-02-27T04:53:14.362Z,100.00
2023-02-27T04:55:47.873Z,100.00
2023-02-27T04:58:21.000Z,100.00
2023-02-27T05:00:56.390Z,100.00
2023-02-27T05:03:26.353Z,100.00
2023-02-27T05:05:58.802Z,100.00
2023-02-27T05:08:34.247Z,100.00
2023-02-27T05:11:08.905Z,100.00
2023-02-27T05:13:41.773Z,100.00
2023-02-27T05:16:18.714Z,100.00
2023-02-27T05:18:47.717Z,100.00
2023-02-27T05:21:25.286Z,100.00
2023-02-27T05:24:04.168Z,100.00
2023-02-27T05:26:45.185Z,100.00
2023-02-27T05:29:23.343Z,100.00
2023-02-27T05:31:56.492Z,100.00
2023-02-27T05:34:28.033Z,100.00
2023-02-27T05:37:00.956Z,100.00
2023-02-27T05:39:31.604Z,100.00
2023-02-27T05:42:02.926Z,100.00
2023-02-27T05:44:34.509Z,100.00
2023-02-27T05:47:10.427Z,100.00
2023-02-27T05:49:43.842Z,100.00
2023-02-27T05:52:14.385Z,100.00
2023-02-27T05:54:48.792Z,100.00
2023-02-27T05:57:22.512Z,100.00
2023-02-27T05:59:56.610Z,100.00
2023-02-27T06:02:26.293Z,100.00
2023-02-27T06:04:55.376Z,100.00
2023-02-27T06:07:23.906Z,100.00
2023-02-27T06:09:52.530Z,100.00
2023-02-27T06:12:20.483Z,100.00
2023-02-27T06:14:48.329Z,100.00
2023-02-27T06:17:16.103Z,100.00
2023-02-27T06:19:45.425Z,100.00
2023-02-27T06:22:13.262Z,100.00
2023-02-27T06:24:41.160Z,100.00
2023-02-27T06:27:09.414Z,100.00
2023-02-27T06:29:37.233Z,100.00
2023-02-27T06:32:05.152Z,100.00
2023-02-27T06:34:33.125Z,100.00
2023-02-27T06:37:04.392Z,100.00
2023-02-27T06:39:32.743Z,100.00
2023-02-27T06:42:00.590Z,100.00
2023-02-27T06:44:29.438Z,100.00
2023-02-27T06:46:57.379Z,100.00
2023-02-27T06:49:25.131Z,100.00
2023-02-27T06:51:52.938Z,100.00
2023-02-27T06:54:22.432Z,100.00
2023-02-27T06:56:51.770Z,100.00
2023-02-27T06:59:19.733Z,100.00
2023-02-27T07:01:48.265Z,100.00
2023-02-27T07:04:16.902Z,100.00
2023-02-27T07:07:33.797Z,100.00
2023-02-27T07:09:35.785Z,100.00
2023-02-27T07:12:03.907Z,100.00
2023-02-27T07:14:31.835Z,100.00
2023-02-27T07:17:03.267Z,100.00
2023-02-27T07:19:31.675Z,100.00
2023-02-27T07:21:59.598Z,100.00
2023-02-27T07:24:27.517Z,100.00
2023-02-27T07:26:56.808Z,100.00
2023-02-27T07:29:24.592Z,100.00
2023-02-27T07:31:52.535Z,100.00
2023-02-27T07:34:20.306Z,100.00
2023-02-27T07:36:48.084Z,100.00
2023-02-27T07:39:16.090Z,100.00
2023-02-27T07:41:43.894Z,100.00
2023-02-27T07:44:19.377Z,100.00
2023-02-27T07:46:47.457Z,100.00
2023-02-27T07:49:15.433Z,100.00
2023-02-27T07:51:43.855Z,100.00
2023-02-27T07:54:11.721Z,100.00
2023-02-27T07:56:39.596Z,100.00
2023-02-27T07:59:07.464Z,100.00
2023-02-27T08:01:36.873Z,100.00
2023-02-27T08:04:04.741Z,100.00
2023-02-27T08:06:32.644Z,100.00
2023-02-27T08:09:00.578Z,100.00
2023-02-27T08:11:29.267Z,100.00
2023-02-27T08:14:01.765Z,100.00
2023-02-27T08:16:31.430Z,100.00
2023-02-27T08:19:01.797Z,100.00
2023-02-27T08:21:30.972Z,100.00
2023-02-27T08:23:58.884Z,100.00
2023-02-27T08:26:27.063Z,100.00
2023-02-27T08:28:55.017Z,100.00
2023-02-27T08:31:23.508Z,100.00
2023-02-27T08:34:01.103Z,100.00
2023-02-27T08:36:38.767Z,100.00
2023-02-27T08:39:07.314Z,100.00
2023-02-27T08:41:35.515Z,100.00
2023-02-27T08:44:03.686Z,100.00
2023-02-27T08:46:31.977Z,100.00
2023-02-27T08:48:59.720Z,100.00
2023-02-27T08:51:28.366Z,100.00
2023-02-27T08:53:58.949Z,100.00
2023-02-27T08:56:27.472Z,100.00
2023-02-27T08:58:55.940Z,100.00
2023-02-27T09:01:24.047Z,100.00
2023-02-27T09:03:51.867Z,100.00
2023-02-27T09:06:19.640Z,100.00
2023-02-27T09:08:47.432Z,100.00
2023-02-27T09:11:17.161Z,100.00
2023-02-27T09:13:47.311Z,98.93
2023-02-27T09:16:15.545Z,98.15
2023-02-27T09:18:43.296Z,100.00
2023-02-27T09:21:11.572Z,100.00
2023-02-27T09:23:39.479Z,98.63
2023-02-27T09:26:09.046Z,100.00
2023-02-27T09:28:40.029Z,98.08
2023-02-27T09:31:09.085Z,96.49
2023-02-27T09:33:38.985Z,97.38
2023-02-27T09:36:08.306Z,94.99
2023-02-27T09:38:36.964Z,96.25
2023-02-27T09:41:06.840Z,92.91
2023-02-27T09:43:45.069Z,92.75
2023-02-27T09:46:19.210Z,93.13
2023-02-27T09:48:51.719Z,91.79
2023-02-27T09:51:20.568Z,89.69
2023-02-27T09:53:50.839Z,88.64
2023-02-27T09:56:21.554Z,87.63
2023-02-27T09:58:57.908Z,87.93
2023-02-27T10:01:31.068Z,86.82
2023-02-27T10:04:31.516Z,86.06
2023-02-27T10:07:08.096Z,86.49
2023-02-27T10:09:46.671Z,88.32
2023-02-27T10:12:23.975Z,85.81
2023-02-27T10:14:58.371Z,86.43
2023-02-27T10:17:30.423Z,85.32
2023-02-27T10:20:02.043Z,86.08
2023-02-27T10:22:34.654Z,88.48
2023-02-27T10:25:10.655Z,84.48
2023-02-27T10:27:48.455Z,82.32
2023-02-27T10:30:29.208Z,82.10
2023-02-27T10:33:09.073Z,82.98
2023-02-27T10:35:40.246Z,82.42
2023-02-27T10:38:15.365Z,82.27
2023-02-27T10:40:44.345Z,82.09
2023-02-27T10:43:15.809Z,81.93
2023-02-27T10:45:45.216Z,80.54
2023-02-27T10:48:14.510Z,78.94
2023-02-27T10:50:44.695Z,80.08
2023-02-27T10:53:18.785Z,81.76
2023-02-27T10:55:58.446Z,80.29
2023-02-27T10:58:28.465Z,77.76
2023-02-27T11:01:00.275Z,77.91
2023-02-27T11:03:30.900Z,78.43
2023-02-27T11:06:01.783Z,74.59
2023-02-27T11:08:31.678Z,76.00
2023-02-27T11:11:02.218Z,74.70
2023-02-27T11:13:31.497Z,73.25
2023-02-27T11:16:07.311Z,73.07
2023-02-27T11:18:36.540Z,74.49
2023-02-27T11:21:20.888Z,72.45
2023-02-27T11:23:54.991Z,75.69
2023-02-27T11:26:27.070Z,71.31
2023-02-27T11:29:14.974Z,68.78
2023-02-27T11:31:51.911Z,74.00
2023-02-27T11:34:27.047Z,76.85
2023-02-27T11:36:57.916Z,74.76
2023-02-27T11:39:31.564Z,73.65
2023-02-27T11:42:07.721Z,72.41
2023-02-27T11:44:50.151Z,71.41
2023-02-27T11:47:26.632Z,75.76
2023-02-27T11:50:29.586Z,63.74
2023-02-27T11:53:08.530Z,69.00
2023-02-27T11:55:38.546Z,72.20
2023-02-27T11:58:13.910Z,68.36
2023-02-27T12:00:46.616Z,66.28
2023-02-27T12:03:26.035Z,69.22
2023-02-27T12:05:58.354Z,72.39
2023-02-27T12:08:34.872Z,71.18
2023-02-27T12:11:14.139Z,70.54
2023-02-27T12:13:48.086Z,71.53
2023-02-27T12:16:21.221Z,69.95
2023-02-27T12:18:56.107Z,68.92
2023-02-27T12:21:27.922Z,68.66
2023-02-27T12:24:00.584Z,69.48
2023-02-27T12:26:32.822Z,70.29
2023-02-27T12:29:06.847Z,65.71
2023-02-27T12:31:45.924Z,68.94
2023-02-27T12:34:23.651Z,66.00
2023-02-27T12:36:53.582Z,63.61
2023-02-27T12:39:23.949Z,64.14
2023-02-27T12:42:27.285Z,61.31
2023-02-27T12:45:23.561Z,63.19
2023-02-27T12:48:04.204Z,62.99
2023-02-27T12:50:45.860Z,63.26
2023-02-27T12:53:30.065Z,68.80
2023-02-27T12:56:04.473Z,67.05
2023-02-27T12:58:41.338Z,69.51
2023-02-27T13:01:20.902Z,69.41
2023-02-27T13:03:57.587Z,66.96
2023-02-27T13:06:32.611Z,63.90
2023-02-27T13:09:21.837Z,65.26
2023-02-27T13:12:00.336Z,65.68
2023-02-27T13:14:36.419Z,65.26
2023-02-27T13:17:11.709Z,66.56
2023-02-27T13:19:44.447Z,67.98
2023-02-27T13:22:18.867Z,66.64
2023-02-27T13:24:51.650Z,64.98
2023-02-27T13:27:25.143Z,64.66
2023-02-27T13:30:06.809Z,64.57
2023-02-27T13:32:44.323Z,66.69
2023-02-27T13:35:23.887Z,67.89
2023-02-27T13:37:56.557Z,64.89
2023-02-27T13:40:40.225Z,64.95
2023-02-27T13:43:51.451Z,63.19
2023-02-27T13:46:24.401Z,64.06
2023-02-27T13:48:53.846Z,61.45
2023-02-27T13:51:56.638Z,62.09
2023-02-27T13:54:40.902Z,61.33
2023-02-27T13:57:26.671Z,62.49
2023-02-27T13:59:57.990Z,62.18
2023-02-27T14:02:56.498Z,61.82
2023-02-27T14:05:34.836Z,59.04
2023-02-27T14:08:15.496Z,58.83
2023-02-27T14:10:57.952Z,58.30
2023-02-27T14:14:01.149Z,60.47
2023-02-27T14:16:57.667Z,58.30
2023-02-27T14:19:51.497Z,57.77
2023-02-27T14:22:41.959Z,59.33
2023-02-27T14:25:27.692Z,59.17
2023-02-27T14:27:59.004Z,58.78
2023-02-27T14:30:33.037Z,58.29
2023-02-27T14:33:08.025Z,60.60
2023-02-27T14:35:37.543Z,61.98
2023-02-27T14:38:10.779Z,61.11
2023-02-27T14:40:44.276Z,60.93
2023-02-27T14:43:23.732Z,62.05
2023-02-27T14:45:53.561Z,60.14
2023-02-27T14:48:28.604Z,60.27
2023-02-27T14:50:58.203Z,62.18
2023-02-27T14:53:27.822Z,62.51
2023-02-27T14:55:58.043Z,62.64
2023-02-27T14:58:27.218Z,62.96
2023-02-27T15:01:06.098Z,65.41
2023-02-27T15:03:39.198Z,63.78
2023-02-27T15:06:17.201Z,64.97
2023-02-27T15:08:49.727Z,67.75
2023-02-27T15:11:20.383Z,68.25
2023-02-27T15:13:56.590Z,67.12
2023-02-27T15:16:40.282Z,67.41
2023-02-27T15:19:16.962Z,67.06
2023-02-27T15:21:49.630Z,66.51
2023-02-27T15:24:40.651Z,68.41
2023-02-27T15:27:20.224Z,69.26
2023-02-27T15:29:53.801Z,68.03
2023-02-27T15:32:28.056Z,69.24
2023-02-27T15:34:57.397Z,69.11
2023-02-27T15:37:28.424Z,70.08
2023-02-27T15:39:57.617Z,68.96
2023-02-27T15:42:27.655Z,69.57
2023-02-27T15:44:58.506Z,71.91
2023-02-27T15:47:28.461Z,69.34
2023-02-27T15:49:59.929Z,71.13
2023-02-27T15:52:33.581Z,70.73
2023-02-27T15:55:04.518Z,69.84
2023-02-27T15:57:33.799Z,71.46
2023-02-27T16:00:04.369Z,69.79
2023-02-27T16:02:44.240Z,70.33
2023-02-27T16:05:18.462Z,70.85
2023-02-27T16:07:47.559Z,70.64
2023-02-27T16:10:21.812Z,72.12
2023-02-27T16:12:49.994Z,70.54
2023-02-27T16:15:31.128Z,70.72
2023-02-27T16:18:02.057Z,70.97
2023-02-27T16:20:39.290Z,71.10
2023-02-27T16:23:08.784Z,70.09
2023-02-27T16:25:36.595Z,70.90
2023-02-27T16:28:04.825Z,70.36
2023-02-27T16:30:34.308Z,70.28
2023-02-27T16:33:03.750Z,70.63
2023-02-27T16:35:31.913Z,71.44
2023-02-27T16:38:03.561Z,71.30
2023-02-27T16:40:31.535Z,72.00
2023-02-27T16:43:01.302Z,72.01
2023-02-27T16:45:30.627Z,72.64
2023-02-27T16:48:01.325Z,72.09
2023-02-27T16:50:31.530Z,72.69
2023-02-27T16:52:59.175Z,71.52
2023-02-27T16:55:27.727Z,72.01
2023-02-27T16:57:55.903Z,73.35
2023-02-27T17:00:24.310Z,73.62
2023-02-27T17:02:52.208Z,73.67
2023-02-27T17:05:22.682Z,72.64
2023-02-27T17:07:50.460Z,72.74
2023-02-27T17:10:20.484Z,73.87
2023-02-27T17:12:48.625Z,74.81
2023-02-27T17:15:18.032Z,75.01
2023-02-27T17:17:46.684Z,75.46
2023-02-27T17:20:15.732Z,75.37
2023-02-27T17:22:46.113Z,76.09
2023-02-27T17:25:14.905Z,76.41
2023-02-27T17:27:43.757Z,76.89
2023-02-27T17:30:13.306Z,77.87
2023-02-27T17:32:41.180Z,78.19
2023-02-27T17:35:09.890Z,78.08
2023-02-27T17:37:37.895Z,78.87
2023-02-27T17:40:09.169Z,78.85
2023-02-27T17:42:37.528Z,78.08
2023-02-27T17:45:06.485Z,77.73
2023-02-27T17:47:35.247Z,78.07
2023-02-27T17:50:04.043Z,78.14
2023-02-27T17:52:31.801Z,79.05
2023-02-27T17:54:59.663Z,79.65
2023-02-27T17:57:28.897Z,80.39
2023-02-27T17:59:56.723Z,80.47
2023-02-27T18:02:24.696Z,80.47
2023-02-27T18:04:53.045Z,79.87
2023-02-27T18:07:21.033Z,80.90
2023-02-27T18:09:48.858Z,80.16
2023-02-27T18:12:16.768Z,80.28
2023-02-27T18:14:46.004Z,81.43
2023-02-27T18:17:13.958Z,81.02
2023-02-27T18:19:42.643Z,79.28
2023-02-27T18:22:11.397Z,78.57
2023-02-27T18:24:39.301Z,78.95
2023-02-27T18:27:07.111Z,78.68
2023-02-27T18:29:36.457Z,78.57
2023-02-27T18:32:08.271Z,77.61
2023-02-27T18:34:36.240Z,77.77
2023-02-27T18:37:04.034Z,78.52
2023-02-27T18:39:31.871Z,78.66
2023-02-27T18:41:59.834Z,78.72
2023-02-27T18:44:27.789Z,78.37
2023-02-27T18:46:55.773Z,79.00
2023-02-27T18:49:25.021Z,78.93
2023-02-27T18:51:52.879Z,79.43
2023-02-27T18:54:22.311Z,79.82
2023-02-27T18:56:51.465Z,80.15
2023-02-27T18:59:19.508Z,80.32
2023-02-27T19:01:47.363Z,80.32
2023-02-27T19:04:15.228Z,80.88
2023-02-27T19:06:44.496Z,81.98
2023-02-27T19:09:15.934Z,80.89
2023-02-27T19:11:46.723Z,81.82
2023-02-27T19:14:16.220Z,83.00
2023-02-27T19:16:46.071Z,84.04
2023-02-27T19:19:13.950Z,84.98
2023-02-27T19:21:41.846Z,86.08
2023-02-27T19:24:14.294Z,87.13
2023-02-27T19:26:42.329Z,85.65
2023-02-27T19:29:10.326Z,85.30
2023-02-27T19:31:38.296Z,85.02
2023-02-27T19:34:06.264Z,85.39
2023-02-27T19:36:34.753Z,85.75
2023-02-27T19:39:03.417Z,85.71
2023-02-27T19:41:33.610Z,86.09
2023-02-27T19:44:01.914Z,86.51
2023-02-27T19:46:32.809Z,86.99
2023-02-27T19:49:04.326Z,87.72
2023-02-27T19:51:32.568Z,88.09
2023-02-27T19:54:00.851Z,88.85
2023-02-27T19:56:30.025Z,89.58
2023-02-27T19:59:01.612Z,90.26
2023-02-27T20:01:32.647Z,91.27
2023-02-27T20:04:01.221Z,91.37
2023-02-27T20:06:31.759Z,92.06
2023-02-27T20:09:00.342Z,91.99
2023-02-27T20:11:31.201Z,92.51
2023-02-27T20:14:01.403Z,92.73
2023-02-27T20:16:30.581Z,93.06
2023-02-27T20:18:58.845Z,91.91
2023-02-27T20:21:28.358Z,91.58
2023-02-27T20:23:57.405Z,91.62
2023-02-27T20:26:28.201Z,92.56
2023-02-27T20:28:59.562Z,93.39
2023-02-27T20:31:30.329Z,93.73
2023-02-27T20:34:01.000Z,94.77
2023-02-27T20:36:29.159Z,95.67
2023-02-27T20:38:58.142Z,95.84
2023-02-27T20:41:28.348Z,95.88
2023-02-27T20:43:57.483Z,95.90
2023-02-27T20:46:29.042Z,95.73
2023-02-27T20:48:59.367Z,95.68
2023-02-27T20:51:29.858Z,96.03
2023-02-27T20:54:00.719Z,96.76
2023-02-27T20:56:30.772Z,95.89
2023-02-27T20:58:59.785Z,96.84
2023-02-27T21:01:29.433Z,96.96
2023-02-27T21:03:59.199Z,96.99
2023-02-27T21:06:27.613Z,97.18
2023-02-27T21:08:57.064Z,96.59
2023-02-27T21:11:28.277Z,98.08
2023-02-27T21:13:57.125Z,96.95
2023-02-27T21:16:26.074Z,98.32
2023-02-27T21:18:56.732Z,99.22
2023-02-27T21:21:26.842Z,98.10
2023-02-27T21:23:55.139Z,97.70
2023-02-27T21:26:25.019Z,98.09
2023-02-27T21:28:54.001Z,98.51
2023-02-27T21:31:23.821Z,98.16
2023-02-27T21:33:52.465Z,98.34
2023-02-27T21:36:26.017Z,98.38
2023-02-27T21:38:56.877Z,99.03
2023-02-27T21:41:24.746Z,98.76
2023-02-27T21:43:52.698Z,100.00
2023-02-27T21:46:21.643Z,100.00
2023-02-27T21:48:49.506Z,99.88
2023-02-27T21:51:26.701Z,99.49
2023-02-27T21:54:06.407Z,99.25
2023-02-27T21:56:34.344Z,98.38
2023-02-27T21:59:02.713Z,98.52
2023-02-27T22:01:31.653Z,99.36
2023-02-27T22:04:01.528Z,98.88
2023-02-27T22:06:32.485Z,98.73
2023-02-27T22:09:04.585Z,98.78
2023-02-27T22:11:34.984Z,98.61
2023-02-27T22:14:03.151Z,98.43
2023-02-27T22:16:30.995Z,98.49
2023-02-27T22:18:58.802Z,97.99
2023-02-27T22:21:28.709Z,96.52
2023-02-27T22:23:57.777Z,95.67
2023-02-27T22:26:29.191Z,95.43
2023-02-27T22:28:59.807Z,95.78
2023-02-27T22:31:30.174Z,96.72
2023-02-27T22:34:01.666Z,96.09
2023-02-27T22:36:31.679Z,96.21
2023-02-27T22:39:00.296Z,96.88
2023-02-27T22:41:30.653Z,97.36
2023-02-27T22:44:01.201Z,98.81
2023-02-27T22:46:31.649Z,98.98
2023-02-27T22:49:01.573Z,98.78
2023-02-27T22:51:30.488Z,99.26
2023-02-27T22:54:00.228Z,97.58
2023-02-27T22:56:28.367Z,98.22
2023-02-27T22:58:56.785Z,100.00
2023-02-27T23:01:28.717Z,100.00
2023-02-27T23:03:58.794Z,100.00
2023-02-27T23:06:28.350Z,100.00
2023-02-27T23:08:56.278Z,100.00
2023-02-27T23:11:24.537Z,100.00
2023-02-27T23:13:52.497Z,100.00
2023-02-27T23:16:20.866Z,100.00
2023-02-27T23:18:51.609Z,100.00
2023-02-27T23:21:23.990Z,100.00
2023-02-27T23:23:53.802Z,100.00
2023-02-27T23:26:22.828Z,100.00
2023-02-27T23:28:50.859Z,100.00
2023-02-27T23:31:19.031Z,100.00
2023-02-27T23:33:46.890Z,100.00
2023-02-27T23:36:16.396Z,100.00
2023-02-27T23:38:46.639Z,100.00
2023-02-27T23:41:17.536Z,100.00
2023-02-27T23:43:46.132Z,100.00
2023-02-27T23:46:16.823Z,100.00
2023-02-27T23:48:45.073Z,100.00
2023-02-27T23:51:13.069Z,100.00
2023-02-27T23:53:43.498Z,100.00
2023-02-27T23:56:16.851Z,100.00
2023-02-27T23:58:44.872Z,100.00
